Terminal Aerodrome Forecast
Issued by NWS

Home | Current Version | Previous Version | Graphics & Text | Print | Product List | Glossary On
Versions: 1 2 3 4 5 6 7 8 9 10 11 12 13 14 15 16
000
FTUS43 KIWX 282320
TAFSBN
TAF
KSBN 282320Z 2900/2924 14005KT P6SM SCT040 OVC150
     FM291500 16006KT P6SM SCT040 BKN100
      TEMPO 2919/2923 P6SM -SHRA BKN040=

USA.gov is the U.S. government's official web portal to all federal, state and local government web resources and services.